Time;durP1;ratioP1;P1;durP2;ratioP2;P2;SDS_P1;SDS_P2;PMS_P1;PMS_P2;Temp;Humidity;BMP_temperature;BMP_pressure;BME280_temperature;BME280_humidity;BME280_pressure;Samples;Min_cycle;Max_cycle;Signal;HPM_P1;HPM_P2
2022/04/01 00:01:31;;;;;;;13.90;3.00;;;;;;;2.19;74.16;98771.27;106026;1270;22988;-56
2022/04/01 00:04:02;;;;;;;10.70;2.60;;;;;;;2.16;74.02;98774.06;106070;1270;22528;-57
2022/04/01 00:06:35;;;;;;;14.50;4.10;;;;;;;2.12;73.91;98775.55;105891;1271;24428;-56
2022/04/01 00:09:06;;;;;;;16.10;4.30;;;;;;;2.08;73.87;98768.27;105985;1270;22675;-58
2022/04/01 00:11:37;;;;;;;16.10;3.20;;;;;;;2.06;74.22;98766.73;106086;1270;22549;-55
2022/04/01 00:14:09;;;;;;;11.30;2.20;;;;;;;2.02;74.24;98762.71;106078;1270;25245;-55
2022/04/01 00:16:41;;;;;;;17.20;3.20;;;;;;;1.98;74.28;98763.48;106031;1270;25411;-59
2022/04/01 00:19:14;;;;;;;12.40;3.20;;;;;;;1.94;74.46;98761.02;105932;1270;22544;-58
2022/04/01 00:21:48;;;;;;;13.10;2.70;;;;;;;1.91;74.81;98755.94;106009;1270;22571;-57
2022/04/01 00:24:23;;;;;;;13.70;3.50;;;;;;;1.87;74.82;98758.96;106010;1270;23125;-58
2022/04/01 00:26:54;;;;;;;18.70;4.10;;;;;;;1.85;75.17;98760.84;105905;1270;22515;-58
2022/04/01 00:29:26;;;;;;;12.90;2.70;;;;;;;1.84;75.15;98763.55;106030;1270;24225;-58
2022/04/01 00:32:00;;;;;;;11.90;3.10;;;;;;;1.82;75.18;98763.39;105958;1270;22531;-58
2022/04/01 00:34:34;;;;;;;16.40;4.60;;;;;;;1.77;75.30;98763.61;105936;1270;24362;-57
2022/04/01 00:37:07;;;;;;;11.40;3.30;;;;;;;1.72;75.58;98769.23;106012;1270;24272;-58
2022/04/01 00:39:39;;;;;;;14.20;3.50;;;;;;;1.71;75.54;98765.52;106008;1270;24259;-56
2022/04/01 00:42:12;;;;;;;17.80;3.60;;;;;;;1.69;75.88;98766.77;105800;1270;23200;-57
2022/04/01 00:44:44;;;;;;;16.30;4.50;;;;;;;1.68;75.98;98764.29;105868;1270;22537;-55
2022/04/01 00:47:16;;;;;;;18.30;4.90;;;;;;;1.66;75.99;98767.73;105922;1270;22542;-57
2022/04/01 00:49:49;;;;;;;14.70;4.20;;;;;;;1.67;76.14;98768.50;105935;1270;22565;-56
2022/04/01 00:52:23;;;;;;;16.60;3.60;;;;;;;1.64;76.14;98762.02;106094;1270;24243;-59
2022/04/01 00:54:54;;;;;;;12.50;3.60;;;;;;;1.59;76.30;98767.92;106007;1270;22539;-57
2022/04/01 00:57:26;;;;;;;17.20;4.30;;;;;;;1.56;76.38;98768.20;106210;1270;22551;-58
2022/04/01 00:59:58;;;;;;;16.30;3.40;;;;;;;1.52;76.52;98768.38;106290;1270;22546;-56
2022/04/01 01:02:29;;;;;;;20.20;4.40;;;;;;;1.46;76.67;98767.30;106370;1270;25314;-58
2022/04/01 01:05:02;;;;;;;16.40;4.70;;;;;;;1.38;76.86;98759.98;106104;1270;22536;-58
2022/04/01 01:07:34;;;;;;;15.60;4.50;;;;;;;1.36;76.93;98762.60;106209;1270;22541;-58
2022/04/01 01:10:06;;;;;;;15.80;4.60;;;;;;;1.35;77.16;98764.29;105996;1270;24389;-58
2022/04/01 01:12:41;;;;;;;14.70;4.30;;;;;;;1.32;77.18;98765.02;105917;1270;23172;-56
2022/04/01 01:15:16;;;;;;;15.20;3.40;;;;;;;1.31;77.34;98762.61;105958;1270;22527;-57
2022/04/01 01:17:49;;;;;;;15.30;3.90;;;;;;;1.26;77.40;98765.40;105806;1270;23808;-57
2022/04/01 01:20:21;;;;;;;15.20;3.60;;;;;;;1.22;77.55;98766.33;106119;1271;22980;-60
2022/04/01 01:22:57;;;;;;;14.50;4.20;;;;;;;1.20;77.66;98761.73;105879;1270;22569;-58
2022/04/01 01:25:29;;;;;;;13.80;3.20;;;;;;;1.17;77.86;98759.95;106027;1270;22542;-58
2022/04/01 01:28:03;;;;;;;15.70;2.90;;;;;;;1.15;77.83;98764.67;106073;1269;26721;-58
2022/04/01 01:30:35;;;;;;;12.00;2.90;;;;;;;1.11;78.17;98762.45;106054;1270;25416;-57
2022/04/01 01:33:07;;;;;;;13.50;3.50;;;;;;;1.06;77.82;98759.50;105983;1270;22575;-59
2022/04/01 01:35:39;;;;;;;17.10;3.50;;;;;;;1.04;77.92;98755.83;106000;1271;25483;-57
2022/04/01 01:38:12;;;;;;;14.30;3.30;;;;;;;1.03;78.03;98755.95;105937;1270;22524;-58
2022/04/01 01:40:43;;;;;;;14.40;3.70;;;;;;;1.01;78.16;98753.03;105948;1270;25628;-56
2022/04/01 01:43:15;;;;;;;18.90;3.90;;;;;;;1.01;78.29;98751.38;106029;1270;24476;-57
2022/04/01 01:45:47;;;;;;;12.40;2.90;;;;;;;1.00;78.32;98748.98;106009;1270;22527;-59
2022/04/01 01:48:21;;;;;;;12.90;3.00;;;;;;;0.99;78.41;98748.93;105894;1270;22545;-58
2022/04/01 01:56:31;;;;;;;15.90;3.70;;;;;;;0.90;78.56;98744.36;105970;1271;25344;-58
2022/04/01 01:59:04;;;;;;;12.20;2.90;;;;;;;0.88;78.78;98743.71;105971;1270;22609;-57
2022/04/01 02:01:35;;;;;;;13.70;2.70;;;;;;;0.83;78.71;98742.16;106064;1270;24428;-58
2022/04/01 02:04:07;;;;;;;8.20;2.20;;;;;;;0.77;78.78;98741.05;106226;1270;24345;-59
2022/04/01 02:06:39;;;;;;;11.80;2.80;;;;;;;0.73;79.00;98737.68;105928;1270;22595;-59
2022/04/01 02:09:11;;;;;;;17.70;4.20;;;;;;;0.70;79.17;98744.69;106008;1270;24233;-59
2022/04/01 02:11:43;;;;;;;14.60;4.00;;;;;;;0.72;79.21;98742.67;105874;1270;24211;-59
2022/04/01 02:14:14;;;;;;;17.00;4.00;;;;;;;0.71;79.10;98740.66;105898;1270;22642;-59
2022/04/01 02:16:47;;;;;;;12.90;3.30;;;;;;;0.70;79.16;98739.44;105941;1271;22722;-59
2022/04/01 02:19:22;;;;;;;14.50;4.00;;;;;;;0.70;79.26;98736.50;105983;1271;25428;-57
2022/04/01 02:21:54;;;;;;;13.40;3.80;;;;;;;0.67;79.17;98735.75;105908;1271;22602;-59
2022/04/01 02:24:26;;;;;;;11.80;3.70;;;;;;;0.64;79.19;98732.23;105947;1270;22718;-59
2022/04/01 02:26:58;;;;;;;19.70;4.00;;;;;;;0.62;79.46;98737.86;105910;1270;22534;-59
2022/04/01 02:29:29;;;;;;;12.20;3.30;;;;;;;0.60;79.39;98739.09;106154;1270;24205;-58
2022/04/01 02:32:01;;;;;;;15.60;4.30;;;;;;;0.59;79.54;98740.41;105984;1270;25531;-59
2022/04/01 02:34:32;;;;;;;12.70;4.00;;;;;;;0.57;79.59;98739.69;105932;1271;22689;-58
2022/04/01 02:37:04;;;;;;;15.90;3.70;;;;;;;0.56;79.74;98743.44;105953;1270;22564;-58
2022/04/01 02:39:37;;;;;;;12.10;3.70;;;;;;;0.56;79.79;98737.07;106123;1271;22523;-58
2022/04/01 02:42:09;;;;;;;13.50;3.70;;;;;;;0.53;79.89;98735.60;106240;1271;22542;-59
2022/04/01 02:44:41;;;;;;;13.10;4.00;;;;;;;0.48;79.86;98736.85;106096;1270;24311;-57
2022/04/01 02:47:13;;;;;;;15.50;3.90;;;;;;;0.47;80.04;98732.14;106249;1270;25231;-56
2022/04/01 02:49:44;;;;;;;17.90;4.30;;;;;;;0.45;80.05;98731.12;106116;1271;22861;-57
2022/04/01 02:52:16;;;;;;;11.50;3.10;;;;;;;0.46;80.03;98730.67;106048;1271;22715;-57
2022/04/01 02:54:47;;;;;;;14.80;3.90;;;;;;;0.46;79.90;98734.77;105898;1271;22807;-58
2022/04/01 02:57:19;;;;;;;15.10;4.30;;;;;;;0.45;79.92;98730.48;106027;1271;27641;-58
2022/04/01 02:59:50;;;;;;;16.90;4.50;;;;;;;0.45;80.01;98732.92;106076;1270;22560;-56
2022/04/01 03:02:22;;;;;;;14.70;4.00;;;;;;;0.41;80.14;98732.66;105985;1271;22532;-58
2022/04/01 03:04:54;;;;;;;14.20;3.90;;;;;;;0.43;80.32;98735.95;105906;1270;26692;-58
2022/04/01 03:07:26;;;;;;;12.30;4.30;;;;;;;0.41;80.30;98731.89;106144;1270;22997;-56
2022/04/01 03:09:57;;;;;;;14.00;3.60;;;;;;;0.38;80.19;98733.09;106124;1270;22532;-59
2022/04/01 03:12:31;;;;;;;14.40;3.80;;;;;;;0.36;80.57;98736.06;106148;1269;22522;-58
2022/04/01 03:15:04;;;;;;;10.90;3.00;;;;;;;0.33;80.48;98735.21;105965;1271;25551;-58
2022/04/01 03:17:35;;;;;;;13.00;4.10;;;;;;;0.32;80.48;98737.46;106121;1270;22534;-57
2022/04/01 03:20:13;;;;;;;16.40;5.50;;;;;;;0.30;80.51;98741.69;106160;1271;25255;-57
2022/04/01 03:22:45;;;;;;;14.50;3.70;;;;;;;0.30;80.69;98737.60;105923;1271;25456;-59
2022/04/01 03:25:19;;;;;;;14.80;4.10;;;;;;;0.31;80.64;98734.84;105943;1271;22691;-55
2022/04/01 03:27:51;;;;;;;16.70;4.60;;;;;;;0.26;80.84;98731.23;105955;1270;25241;-58
2022/04/01 03:30:23;;;;;;;13.30;3.60;;;;;;;0.24;80.85;98731.70;105989;1271;25776;-58
2022/04/01 03:32:55;;;;;;;13.20;3.80;;;;;;;0.22;80.79;98730.14;106007;1271;24267;-55
2022/04/01 03:35:27;;;;;;;13.30;3.30;;;;;;;0.18;80.75;98725.40;106062;1271;24256;-56
2022/04/01 03:38:00;;;;;;;13.30;2.70;;;;;;;0.16;80.85;98722.17;105997;1271;22546;-59
2022/04/01 03:40:33;;;;;;;13.90;3.50;;;;;;;0.13;80.99;98720.48;106115;1271;22527;-59
2022/04/01 03:43:05;;;;;;;13.10;3.60;;;;;;;0.11;81.19;98719.30;106019;1271;25315;-59
2022/04/01 03:45:37;;;;;;;20.20;3.40;;;;;;;0.10;81.08;98720.21;105959;1270;23287;-59
2022/04/01 03:48:16;;;;;;;17.40;4.50;;;;;;;0.06;81.18;98721.92;105987;1270;22542;-56
2022/04/01 03:50:52;;;;;;;18.50;3.80;;;;;;;0.01;81.02;98725.05;106099;1271;22528;-58
2022/04/01 03:53:28;;;;;;;15.10;3.60;;;;;;;-0.00;81.11;98724.71;106052;1271;25631;-57
2022/04/01 03:56:01;;;;;;;15.00;4.30;;;;;;;0.02;81.24;98724.83;106034;1271;25454;-58
2022/04/01 03:58:34;;;;;;;18.90;4.90;;;;;;;0.00;81.15;98723.77;106077;1271;23942;-57
2022/04/01 04:01:08;;;;;;;17.60;4.30;;;;;;;-0.02;81.17;98726.27;105939;1270;25258;-55
2022/04/01 04:03:43;;;;;;;14.30;3.40;;;;;;;-0.03;81.27;98727.61;106122;1270;26217;-56
2022/04/01 04:06:15;;;;;;;15.60;4.00;;;;;;;-0.01;81.28;98732.66;106065;1271;25242;-58
2022/04/01 04:08:46;;;;;;;13.70;3.40;;;;;;;-0.03;81.17;98733.83;106063;1271;22563;-55
2022/04/01 04:11:19;;;;;;;9.30;2.00;;;;;;;-0.05;81.25;98738.14;106173;1271;24357;-57
2022/04/01 04:13:52;;;;;;;19.80;4.10;;;;;;;-0.09;81.32;98733.80;106193;1270;22981;-56
2022/04/01 04:16:29;;;;;;;13.40;3.40;;;;;;;-0.11;81.35;98730.98;105932;1271;24227;-57
2022/04/01 04:19:04;;;;;;;14.30;4.00;;;;;;;-0.09;81.49;98731.52;106042;1271;23984;-59
2022/04/01 04:21:48;;;;;;;14.00;3.60;;;;;;;-0.10;81.45;98734.77;106130;1271;23971;-58
2022/04/01 04:24:27;;;;;;;16.50;3.70;;;;;;;-0.10;81.41;98733.73;106169;1270;24265;-60
2022/04/01 04:27:10;;;;;;;16.20;4.30;;;;;;;-0.09;81.36;98733.96;105992;1271;22527;-59
2022/04/01 04:29:48;;;;;;;12.20;2.90;;;;;;;-0.10;81.45;98732.73;105946;1271;25365;-60
2022/04/01 04:32:28;;;;;;;13.00;3.50;;;;;;;-0.10;81.34;98738.91;106081;1271;23339;-59
2022/04/01 04:35:04;;;;;;;15.60;3.90;;;;;;;-0.11;81.41;98741.16;105847;1271;23015;-59
2022/04/01 04:37:40;;;;;;;19.50;5.70;;;;;;;-0.13;81.52;98744.59;106145;1271;24373;-60
2022/04/01 04:40:17;;;;;;;17.80;5.90;;;;;;;-0.14;81.44;98749.23;106135;1270;22731;-59
2022/04/01 04:42:49;;;;;;;15.00;4.30;;;;;;;-0.13;81.49;98746.71;107393;1270;22581;-60
2022/04/01 04:45:22;;;;;;;17.10;4.90;;;;;;;-0.13;81.68;98749.05;106677;1271;24352;-61
2022/04/01 04:47:54;;;;;;;21.10;5.10;;;;;;;-0.12;81.59;98748.63;106074;1270;22561;-60
2022/04/01 04:50:26;;;;;;;40.40;13.90;;;;;;;-0.12;81.66;98749.27;108337;1269;24249;-62
2022/04/01 04:52:58;;;;;;;39.10;16.50;;;;;;;-0.13;81.50;98748.73;106510;1271;24745;-62
2022/04/01 04:55:34;;;;;;;25.50;9.80;;;;;;;-0.14;81.59;98749.15;106100;1270;24245;-62
2022/04/01 04:58:08;;;;;;;22.70;7.50;;;;;;;-0.13;81.71;98745.46;106473;1271;22648;-63
2022/04/01 05:00:47;;;;;;;21.90;6.40;;;;;;;-0.16;81.59;98744.60;106224;1271;23448;-61
2022/04/01 05:03:33;;;;;;;22.80;6.40;;;;;;;-0.17;81.69;98746.05;106210;1271;24370;-61
2022/04/01 05:06:06;;;;;;;22.30;5.10;;;;;;;-0.16;81.69;98745.77;109788;1270;22386;-60
2022/04/01 05:08:46;;;;;;;17.20;6.10;;;;;;;-0.18;81.71;98745.14;109781;1271;22536;-63
2022/04/01 05:11:24;;;;;;;21.40;7.50;;;;;;;-0.20;81.73;98750.55;106323;1271;22509;-63
2022/04/01 05:13:59;;;;;;;71.50;22.30;;;;;;;-0.22;81.84;98745.11;108323;1271;25593;-61
2022/04/01 05:16:40;;;;;;;86.50;28.90;;;;;;;-0.22;82.03;98748.80;107176;1271;22525;-60
2022/04/01 05:19:14;;;;;;;121.50;42.60;;;;;;;-0.23;82.03;98742.81;107780;1269;23081;-61
2022/04/01 05:21:58;;;;;;;122.70;42.50;;;;;;;-0.20;82.00;98749.91;107050;1271;22765;-61
2022/04/01 05:24:38;;;;;;;104.20;34.50;;;;;;;-0.18;81.96;98754.55;107741;1269;25571;-61
2022/04/01 05:27:18;;;;;;;133.60;43.80;;;;;;;-0.18;82.00;98750.64;106268;1270;25480;-59
2022/04/01 05:29:52;;;;;;;;;;;;;;;-0.16;81.98;98749.08;106173;1271;24069;-62
2022/04/01 05:32:31;;;;;;;161.60;47.10;;;;;;;-0.16;81.96;98745.88;106163;1271;22551;-60
2022/04/01 05:35:04;;;;;;;184.10;66.40;;;;;;;-0.16;82.10;98745.23;106168;1271;22561;-62
2022/04/01 05:37:36;;;;;;;150.70;52.60;;;;;;;-0.18;82.05;98747.80;106190;1270;24235;-62
2022/04/01 05:40:10;;;;;;;178.70;62.60;;;;;;;-0.17;82.07;98746.85;106254;1271;25477;-61
2022/04/01 05:42:45;;;;;;;147.10;49.70;;;;;;;-0.16;82.07;98755.51;106243;1271;24239;-58
2022/04/01 05:45:19;;;;;;;102.00;40.20;;;;;;;-0.16;82.03;98754.73;106120;1271;22519;-60
2022/04/01 05:47:51;;;;;;;113.70;40.40;;;;;;;-0.16;82.00;98754.41;106252;1271;26794;-59
2022/04/01 05:50:25;;;;;;;128.80;48.90;;;;;;;-0.19;82.01;98759.04;106140;1272;22522;-60
2022/04/01 05:52:57;;;;;;;137.60;51.00;;;;;;;-0.17;82.06;98760.09;106201;1271;22522;-60
2022/04/01 05:55:32;;;;;;;80.60;32.80;;;;;;;-0.17;81.89;98768.17;106315;1271;22790;-61
2022/04/01 05:58:06;;;;;;;117.60;46.20;;;;;;;-0.18;81.91;98767.48;107140;1270;24295;-61
2022/04/01 06:00:43;;;;;;;123.70;49.20;;;;;;;-0.18;82.01;98769.74;106241;1271;24224;-59
2022/04/01 06:03:49;;;;;;;71.90;29.60;;;;;;;-0.16;81.95;98775.04;106331;1271;25328;-60
2022/04/01 06:06:29;;;;;;;120.70;45.20;;;;;;;-0.15;81.83;98770.69;106364;1271;22612;-60
2022/04/01 06:09:23;;;;;;;101.00;39.60;;;;;;;-0.17;81.93;98771.77;106218;1271;25450;-60
2022/04/01 06:12:02;;;;;;;83.70;34.40;;;;;;;-0.15;81.81;98772.64;106257;1271;22567;-60
2022/04/01 06:14:46;;;;;;;91.80;37.60;;;;;;;-0.15;81.93;98770.11;106325;1270;25406;-62
2022/04/01 06:17:35;;;;;;;93.80;38.20;;;;;;;-0.09;81.92;98769.46;106365;1271;25450;-59
2022/04/01 06:20:08;;;;;;;120.80;46.10;;;;;;;-0.05;81.94;98770.65;106397;1271;25534;-61
2022/04/01 06:22:49;;;;;;;92.90;37.00;;;;;;;-0.04;81.85;98770.30;106238;1271;26321;-59
2022/04/01 06:25:24;;;;;;;;;;;;;;;-0.05;81.65;98771.98;106433;1271;22591;-61
2022/04/01 06:28:03;;;;;;;75.40;26.80;;;;;;;-0.06;81.62;98780.16;106079;1272;24396;-62
2022/04/01 06:30:39;;;;;;;86.90;33.40;;;;;;;-0.08;81.58;98778.89;106129;1271;24360;-61
2022/04/01 06:33:21;;;;;;;114.10;41.70;;;;;;;-0.07;81.71;98775.81;106537;1271;22528;-61
2022/04/01 06:36:00;;;;;;;86.30;33.20;;;;;;;-0.03;81.61;98778.90;106220;1271;22478;-61
2022/04/01 06:38:44;;;;;;;109.10;39.80;;;;;;;-0.02;81.43;98784.42;106332;1271;24057;-59
2022/04/01 06:41:19;;;;;;;69.30;25.50;;;;;;;-0.03;81.44;98782.79;106292;1271;22548;-60
2022/04/01 06:43:51;;;;;;;98.20;35.90;;;;;;;-0.05;81.36;98788.19;106273;1271;23474;-61
2022/04/01 06:46:23;;;;;;;55.60;23.00;;;;;;;-0.06;81.41;98785.80;106277;1271;22540;-60
2022/04/01 06:48:56;;;;;;;39.90;17.00;;;;;;;-0.06;81.48;98783.92;106256;1271;22704;-62
2022/04/01 06:51:27;;;;;;;43.30;16.90;;;;;;;-0.04;81.52;98780.63;106255;1269;25479;-62
2022/04/01 06:53:59;;;;;;;35.30;12.10;;;;;;;0.00;81.68;98776.60;106290;1271;26724;-58
2022/04/01 06:56:31;;;;;;;26.30;12.50;;;;;;;0.04;81.65;98775.99;106271;1271;22529;-56
2022/04/01 06:59:05;;;;;;;26.70;10.70;;;;;;;0.06;81.60;98773.35;106250;1271;22654;-60
2022/04/01 07:01:37;;;;;;;30.30;11.90;;;;;;;0.08;81.58;98772.73;106373;1271;22512;-60
2022/04/01 07:04:09;;;;;;;23.20;8.20;;;;;;;0.08;81.38;98774.05;106374;1271;28017;-61
2022/04/01 07:06:41;;;;;;;14.50;6.10;;;;;;;0.07;81.32;98778.48;106210;1271;22645;-59
2022/04/01 07:09:13;;;;;;;20.90;7.10;;;;;;;0.07;81.24;98783.58;106345;1270;25266;-59
2022/04/01 07:11:44;;;;;;;19.40;7.90;;;;;;;0.08;81.42;98777.74;106280;1271;22541;-59
2022/04/01 07:14:16;;;;;;;17.20;6.80;;;;;;;0.09;81.20;98782.34;106461;1271;22539;-59
2022/04/01 07:16:48;;;;;;;18.60;7.20;;;;;;;0.10;81.38;98778.30;106284;1271;28232;-60
2022/04/01 07:19:20;;;;;;;17.00;7.40;;;;;;;0.09;81.35;98782.40;106476;1271;24248;-60
2022/04/01 07:21:51;;;;;;;17.70;7.20;;;;;;;0.09;81.17;98789.46;106269;1270;22528;-58
2022/04/01 07:24:25;;;;;;;24.10;9.60;;;;;;;0.09;81.36;98794.63;106371;1271;25408;-60
2022/04/01 07:26:57;;;;;;;19.50;6.70;;;;;;;0.11;81.42;98793.55;106224;1271;22615;-60
2022/04/01 07:29:29;;;;;;;16.90;7.10;;;;;;;0.11;81.28;98794.49;106350;1270;23292;-58
2022/04/01 07:34:50;;;;;;;14.10;5.90;;;;;;;0.08;80.82;98786.69;106204;1271;22567;-61
2022/04/01 07:37:23;;;;;;;14.80;5.00;;;;;;;0.07;81.12;98786.41;106355;1271;22610;-61
2022/04/01 07:39:57;;;;;;;12.80;4.70;;;;;;;0.10;81.21;98793.81;106216;1270;25543;-57
2022/04/01 07:42:31;;;;;;;14.90;6.90;;;;;;;0.13;81.20;98796.00;106179;1270;22787;-58
2022/04/01 07:45:03;;;;;;;14.90;5.40;;;;;;;0.19;81.21;98801.98;106261;1270;24466;-60
2022/04/01 07:47:36;;;;;;;16.30;5.60;;;;;;;0.22;81.06;98805.64;106352;1270;22751;-63
2022/04/01 07:50:09;;;;;;;15.30;5.70;;;;;;;0.23;81.08;98804.88;106342;1270;22623;-59
2022/04/01 07:52:43;;;;;;;15.90;6.00;;;;;;;0.26;81.11;98798.75;106324;1271;22525;-60
2022/04/01 07:55:16;;;;;;;16.80;6.50;;;;;;;0.31;81.20;98795.20;106316;1270;22531;-62
2022/04/01 07:57:52;;;;;;;19.60;6.20;;;;;;;0.36;81.28;98803.83;106380;1270;23288;-60
2022/04/01 08:00:23;;;;;;;15.00;6.10;;;;;;;0.41;81.24;98804.77;106340;1269;22736;-60
2022/04/01 08:02:57;;;;;;;20.10;7.30;;;;;;;0.45;81.27;98807.73;106560;1271;22549;-59
2022/04/01 08:05:30;;;;;;;19.70;5.90;;;;;;;0.53;81.31;98808.86;106416;1271;22694;-59
2022/04/01 08:08:03;;;;;;;21.00;8.00;;;;;;;0.56;80.89;98809.55;106508;1270;24288;-61
2022/04/01 08:10:35;;;;;;;15.80;5.30;;;;;;;0.58;80.81;98815.31;106393;1270;22722;-59
2022/04/01 08:13:07;;;;;;;19.70;7.50;;;;;;;0.61;80.93;98818.41;106355;1270;22531;-61
2022/04/01 08:15:40;;;;;;;14.60;5.50;;;;;;;0.64;80.74;98824.86;106267;1270;24227;-61
2022/04/01 08:18:11;;;;;;;17.60;6.40;;;;;;;0.65;80.67;98828.84;106270;1270;22519;-59
2022/04/01 08:20:44;;;;;;;17.60;7.30;;;;;;;0.62;80.48;98826.45;106385;1271;22619;-59
2022/04/01 08:23:16;;;;;;;17.80;5.60;;;;;;;0.58;80.40;98831.35;106340;1271;23099;-61
2022/04/01 08:25:48;;;;;;;15.70;6.20;;;;;;;0.55;80.45;98835.08;106382;1270;23452;-61
2022/04/01 08:28:20;;;;;;;18.00;6.50;;;;;;;0.52;80.71;98833.13;106219;1271;22678;-58
2022/04/01 08:30:52;;;;;;;18.40;8.00;;;;;;;0.51;80.73;98833.27;106242;1271;23195;-59
2022/04/01 08:33:23;;;;;;;17.10;6.50;;;;;;;0.50;80.72;98833.76;106241;1270;22554;-60
2022/04/01 08:35:55;;;;;;;20.20;7.90;;;;;;;0.49;80.52;98838.76;106337;1269;24380;-59
2022/04/01 08:38:27;;;;;;;17.80;7.60;;;;;;;0.47;80.59;98836.77;106234;1271;25431;-60
2022/04/01 08:41:00;;;;;;;22.30;9.50;;;;;;;0.50;80.73;98836.27;106284;1271;22542;-58
2022/04/01 08:43:34;;;;;;;19.10;8.40;;;;;;;0.51;80.68;98838.77;106375;1270;24238;-60
2022/04/01 08:46:08;;;;;;;22.30;9.60;;;;;;;0.51;80.84;98844.23;106346;1270;23006;-62
2022/04/01 08:48:41;;;;;;;20.60;8.30;;;;;;;0.51;81.01;98845.02;106318;1270;24253;-62
2022/04/01 08:51:13;;;;;;;19.40;8.70;;;;;;;0.53;81.00;98844.33;106504;1270;25398;-59
2022/04/01 08:53:46;;;;;;;27.80;11.90;;;;;;;0.55;81.07;98845.69;106384;1271;22869;-59
2022/04/01 08:56:22;;;;;;;22.10;9.80;;;;;;;0.59;81.13;98848.75;106453;1270;23188;-62
2022/04/01 08:58:53;;;;;;;28.70;11.60;;;;;;;0.57;80.48;98848.50;106194;1269;22984;-59
2022/04/01 09:01:25;;;;;;;21.00;8.50;;;;;;;0.56;80.78;98853.64;106173;1270;25523;-58
2022/04/01 09:04:03;;;;;;;22.20;9.20;;;;;;;0.58;80.69;98852.56;106168;1270;22493;-63
2022/04/01 09:06:43;;;;;;;22.20;9.60;;;;;;;0.60;80.83;98854.52;106039;1270;22531;-59
2022/04/01 09:09:26;;;;;;;26.00;11.20;;;;;;;0.65;80.94;98856.39;106247;1270;23963;-57
2022/04/01 09:12:24;;;;;;;27.90;11.40;;;;;;;0.67;80.72;98852.92;106009;1269;22543;-59
2022/04/01 09:14:57;;;;;;;17.70;6.90;;;;;;;0.66;80.62;98850.76;105620;1274;24245;-59
2022/04/01 09:20:26;;;;;;;20.60;8.90;;;;;;;0.63;80.85;98853.99;102331;1311;545304;-59
2022/04/01 09:22:59;;;;;;;27.20;11.10;;;;;;;0.63;80.60;98853.48;105318;1281;25451;-58
2022/04/01 09:25:31;;;;;;;25.40;9.80;;;;;;;0.63;80.67;98857.38;105363;1281;22573;-59
2022/04/01 09:28:03;;;;;;;22.30;9.80;;;;;;;0.65;80.72;98858.02;105463;1281;26969;-58
2022/04/01 09:30:34;;;;;;;23.00;8.90;;;;;;;0.66;80.67;98862.53;105219;1281;22694;-57
2022/04/01 09:33:06;;;;;;;23.40;10.20;;;;;;;0.66;80.71;98866.02;104877;1281;292813;-59
2022/04/01 09:35:37;;;;;;;32.10;12.70;;;;;;;0.66;80.39;98868.58;105401;1279;25548;-58
2022/04/01 09:38:09;;;;;;;25.80;11.20;;;;;;;0.65;80.49;98865.48;106252;1270;22652;-58
2022/04/01 09:40:44;;;;;;;22.30;8.60;;;;;;;0.66;80.32;98867.73;106379;1271;25301;-57
2022/04/01 09:43:25;;;;;;;22.20;8.00;;;;;;;0.64;80.21;98867.86;106131;1271;27860;-58
2022/04/01 09:46:04;;;;;;;26.70;10.20;;;;;;;0.64;80.38;98868.19;106035;1271;24350;-57
2022/04/01 09:48:44;;;;;;;23.80;11.10;;;;;;;0.66;80.42;98866.61;105980;1271;22627;-59
2022/04/01 09:51:16;;;;;;;25.90;10.20;;;;;;;0.67;80.50;98872.23;106075;1271;22734;-57
2022/04/01 09:53:54;;;;;;;22.90;8.00;;;;;;;0.68;80.55;98869.84;106053;1271;22608;-59
2022/04/01 09:56:46;;;;;;;58.00;24.90;;;;;;;0.69;80.24;98872.80;106032;1271;25363;-56
2022/04/01 09:59:19;;;;;;;33.60;11.10;;;;;;;0.68;80.50;98872.50;106038;1270;25587;-58
2022/04/01 10:01:50;;;;;;;29.80;11.30;;;;;;;0.69;80.47;98869.58;105927;1271;24291;-58
2022/04/01 10:04:22;;;;;;;20.00;7.30;;;;;;;0.70;80.66;98869.52;106139;1270;22553;-58
2022/04/01 10:06:54;;;;;;;24.40;9.20;;;;;;;0.71;80.60;98869.57;106022;1270;22729;-58
2022/04/01 10:09:27;;;;;;;24.70;9.70;;;;;;;0.72;80.42;98870.64;106003;1270;22561;-55
2022/04/01 10:12:02;;;;;;;24.80;9.90;;;;;;;0.75;80.42;98870.63;105994;1270;22546;-55
2022/04/01 10:14:38;;;;;;;20.40;7.10;;;;;;;0.75;80.44;98870.64;106083;1271;22729;-58
2022/04/01 10:17:15;;;;;;;23.80;8.30;;;;;;;0.73;80.36;98872.34;105975;1270;22553;-58
2022/04/01 10:19:50;;;;;;;19.10;7.80;;;;;;;0.73;80.42;98871.94;106004;1270;22558;-57
2022/04/01 10:22:22;;;;;;;19.30;7.30;;;;;;;0.73;80.27;98867.23;106038;1270;22729;-57
2022/04/01 10:25:02;;;;;;;19.60;6.00;;;;;;;0.72;80.36;98864.78;106102;1270;22818;-59
2022/04/01 10:27:40;;;;;;;20.90;6.60;;;;;;;0.72;80.35;98864.66;106184;1268;22553;-57
2022/04/01 10:30:16;;;;;;;20.60;8.00;;;;;;;0.75;80.35;98870.31;106708;1258;25847;-56
2022/04/01 10:32:50;;;;;;;17.60;5.30;;;;;;;0.77;80.34;98871.81;106137;1268;24210;-59
2022/04/01 10:35:27;;;;;;;17.50;6.00;;;;;;;0.76;79.89;98873.39;106189;1268;26711;-58
2022/04/01 10:38:17;;;;;;;17.90;5.10;;;;;;;0.75;80.03;98871.40;106284;1268;25609;-57
2022/04/01 10:40:49;;;;;;;;;;;;;;;0.75;79.86;98878.30;106308;1269;26541;-59
2022/04/01 10:43:23;;;;;;;18.20;5.40;;;;;;;0.75;79.78;98879.40;106150;1268;24756;-56
2022/04/01 10:46:03;;;;;;;25.40;8.70;;;;;;;0.74;79.82;98881.33;106170;1268;25598;-59
2022/04/01 10:51:39;;;;;;;19.00;4.90;;;;;;;0.80;80.08;98885.52;106144;1268;22553;-55
2022/04/01 10:54:42;;;;;;;18.50;5.70;;;;;;;0.85;80.32;98888.17;106384;1266;22621;-59
2022/04/01 10:57:26;;;;;;;17.60;5.10;;;;;;;0.87;79.99;98887.84;106213;1268;22517;-58
2022/04/01 11:00:04;;;;;;;18.00;3.90;;;;;;;0.87;79.87;98890.14;106103;1268;23937;-57
2022/04/01 11:02:35;;;;;;;21.40;5.30;;;;;;;0.87;79.94;98893.68;106381;1268;22711;-53
2022/04/01 11:05:25;;;;;;;26.10;6.50;;;;;;;0.87;79.79;98891.80;106121;1268;22531;-58
2022/04/01 11:08:21;;;;;;;20.70;5.60;;;;;;;0.86;79.88;98890.72;106314;1271;22550;-54
2022/04/01 11:11:13;;;;;;;18.40;4.50;;;;;;;0.88;79.82;98888.55;106285;1268;25518;-56
2022/04/01 11:14:01;;;;;;;23.60;5.50;;;;;;;0.88;79.94;98891.27;106329;1268;26564;-57
2022/04/01 11:16:49;;;;;;;13.70;2.80;;;;;;;0.91;80.03;98891.27;105987;1268;22649;-60
2022/04/01 11:19:26;;;;;;;20.90;5.60;;;;;;;0.92;79.80;98891.95;106698;1268;23038;-60
2022/04/01 11:21:58;;;;;;;21.90;6.50;;;;;;;0.90;79.87;98894.20;106210;1270;24271;-58
2022/04/01 11:24:38;;;;;;;26.70;5.00;;;;;;;0.90;79.93;98894.05;106549;1268;22555;-58
2022/04/01 11:27:23;;;;;;;18.40;5.10;;;;;;;0.90;79.96;98896.87;106272;1268;22538;-58
2022/04/01 11:30:12;;;;;;;19.00;4.50;;;;;;;0.91;79.87;98896.67;106416;1271;24245;-58
2022/04/01 11:32:45;;;;;;;21.40;6.00;;;;;;;0.92;79.95;98898.13;106079;1271;22678;-57
2022/04/01 11:35:22;;;;;;;26.00;6.00;;;;;;;0.94;80.16;98895.62;106296;1270;22522;-58
2022/04/01 11:37:54;;;;;;;21.40;5.20;;;;;;;0.96;80.28;98899.57;106346;1271;22868;-60
2022/04/01 11:40:28;;;;;;;19.00;6.30;;;;;;;0.99;80.32;98898.35;106150;1273;24220;-55
2022/04/01 11:43:02;;;;;;;21.20;5.10;;;;;;;1.01;80.19;98898.98;106252;1271;23678;-56
2022/04/01 11:45:36;;;;;;;21.20;5.80;;;;;;;1.01;79.94;98897.33;106127;1271;25266;-59
2022/04/01 11:48:16;;;;;;;19.20;4.70;;;;;;;1.00;79.95;98898.85;106088;1271;25358;-59
2022/04/01 11:50:50;;;;;;;22.20;6.20;;;;;;;1.00;79.78;98899.25;106193;1271;22560;-57
2022/04/01 11:53:26;;;;;;;20.80;5.40;;;;;;;1.00;80.15;98900.80;106232;1271;22544;-56
2022/04/01 11:55:59;;;;;;;20.90;5.90;;;;;;;1.01;79.97;98897.25;106160;1271;25326;-59
2022/04/01 11:58:37;;;;;;;26.30;5.80;;;;;;;1.01;80.08;98898.12;106139;1271;22733;-59
2022/04/01 12:01:09;;;;;;;18.70;5.60;;;;;;;1.02;80.13;98896.36;106203;1269;22618;-54
2022/04/01 12:03:40;;;;;;;30.10;6.20;;;;;;;1.04;80.24;98892.98;106176;1271;25073;-56
2022/04/01 12:09:06;;;;;;;24.20;5.80;;;;;;;1.09;80.34;98888.02;105922;1272;22684;-57
2022/04/01 12:11:45;;;;;;;15.70;5.40;;;;;;;1.14;80.25;98887.77;106085;1271;25524;-59
2022/04/01 12:14:23;;;;;;;24.20;6.60;;;;;;;1.16;80.12;98884.40;106171;1268;22626;-57